Time;durP1;ratioP1;P1;durP2;ratioP2;P2;SDS_P1;SDS_P2;PMS_P1;PMS_P2;Temp;Humidity;BMP_temperature;BMP_pressure;BME280_temperature;BME280_humidity;BME280_pressure;Samples;Min_cycle;Max_cycle;Signal;HPM_P1;HPM_P2
2021/07/15 00:01:06;;;;;;;;;;;17.80;96.40;;;;;;4976279;28;20060;-65
2021/07/15 00:03:32;;;;;;;;;;;17.70;96.40;;;;;;4975460;28;19987;-65
2021/07/15 00:05:58;;;;;;;;;;;17.60;96.50;;;;;;4976809;28;19969;-65
2021/07/15 00:08:24;;;;;;;;;;;17.60;96.60;;;;;;4975847;28;19972;-66
2021/07/15 00:10:55;;;;;;;;;;;17.60;96.80;;;;;;4979195;28;19914;-66
2021/07/15 00:13:20;;;;;;;;;;;17.70;96.80;;;;;;4978242;28;19944;-65
2021/07/15 00:15:48;;;;;;;;;;;17.70;96.70;;;;;;4976579;28;20320;-66
2021/07/15 00:18:14;;;;;;;;;;;17.80;96.80;;;;;;4979076;28;19975;-65
2021/07/15 00:20:41;;;;;;;;;;;17.80;96.70;;;;;;4976734;28;19990;-66
2021/07/15 00:23:07;;;;;;;;;;;17.90;96.60;;;;;;4977822;28;20371;-65
2021/07/15 00:25:33;;;;;;;;;;;17.90;96.50;;;;;;4976204;28;19941;-65
2021/07/15 00:27:58;;;;;;;;;;;18.00;96.50;;;;;;4975602;28;19917;-66
2021/07/15 00:30:24;;;;;;;;;;;18.00;96.30;;;;;;4977066;28;19945;-65
2021/07/15 00:32:49;;;;;;;;;;;18.00;96.40;;;;;;4977127;28;20385;-65
2021/07/15 00:35:15;;;;;;;;;;;18.10;96.20;;;;;;4982580;28;19960;-66
2021/07/15 00:37:42;;;;;;;;;;;18.10;96.10;;;;;;4976909;28;20043;-65
2021/07/15 00:40:09;;;;;;;;;;;18.00;96.00;;;;;;4981109;28;19994;-65
2021/07/15 00:42:34;;;;;;;;;;;17.90;96.30;;;;;;4975089;28;19980;-65
2021/07/15 00:45:00;;;;;;;;;;;17.80;96.40;;;;;;4978125;28;19913;-66
2021/07/15 00:47:25;;;;;;;;;;;17.70;96.60;;;;;;4976137;28;19932;-66
2021/07/15 00:49:51;;;;;;;;;;;17.80;96.80;;;;;;4975544;28;19945;-66
2021/07/15 00:52:16;;;;;;;;;;;17.70;96.80;;;;;;4978496;28;19987;-65
2021/07/15 00:54:42;;;;;;;;;;;17.70;96.80;;;;;;4980720;28;19922;-64
2021/07/15 00:57:08;;;;;;;;;;;17.60;96.80;;;;;;4975209;28;20376;-65
2021/07/15 00:59:34;;;;;;;;;;;17.60;96.50;;;;;;4980253;28;20065;-66
2021/07/15 01:01:59;;;;;;;;;;;17.50;96.70;;;;;;4975638;28;19980;-65
2021/07/15 01:04:25;;;;;;;;;;;17.50;96.70;;;;;;4982238;28;19969;-67
2021/07/15 01:06:51;;;;;;;;;;;17.50;96.80;;;;;;4968996;28;20022;-66
2021/07/15 01:09:16;;;;;;;;;;;17.40;96.90;;;;;;4982356;28;19925;-65
2021/07/15 01:11:47;;;;;;;;;;;17.30;96.90;;;;;;4971331;28;19918;-66
2021/07/15 01:14:22;;;;;;;;;;;17.30;96.90;;;;;;4983061;28;19940;-66
2021/07/15 01:17:00;;;;;;;;;;;17.30;97.00;;;;;;4978244;28;19969;-66
2021/07/15 01:19:44;;;;;;;;;;;17.20;97.30;;;;;;4980514;28;19921;-65
2021/07/15 01:22:10;;;;;;;;;;;17.20;97.30;;;;;;4971250;28;20121;-66
2021/07/15 01:24:50;;;;;;;;;;;17.10;97.40;;;;;;4974704;28;19917;-65
2021/07/15 01:27:34;;;;;;;;;;;17.10;97.50;;;;;;4974349;28;20431;-65
2021/07/15 01:30:14;;;;;;;;;;;17.10;97.60;;;;;;4973784;28;19914;-65
2021/07/15 01:32:47;;;;;;;;;;;17.10;97.60;;;;;;4977077;28;19918;-65
2021/07/15 01:35:15;;;;;;;;;;;17.10;97.60;;;;;;4981375;28;20005;-66
2021/07/15 01:37:44;;;;;;;;;;;17.00;97.60;;;;;;4979157;28;19926;-66
2021/07/15 01:40:10;;;;;;;;;;;17.10;97.70;;;;;;4990197;28;20379;-66
2021/07/15 01:42:37;;;;;;;;;;;17.00;97.60;;;;;;4980420;28;20362;-66
2021/07/15 01:45:03;;;;;;;;;;;17.00;97.60;;;;;;4985318;28;19909;-66
2021/07/15 01:47:29;;;;;;;;;;;17.00;97.60;;;;;;4974467;28;19918;-66
2021/07/15 01:49:56;;;;;;;;;;;17.00;97.70;;;;;;4981782;28;19933;-65
2021/07/15 01:52:22;;;;;;;;;;;17.00;97.70;;;;;;4990082;28;20036;-65
2021/07/15 01:54:50;;;;;;;;;;;16.90;97.70;;;;;;4977739;28;20287;-65
2021/07/15 01:57:18;;;;;;;;;;;16.90;97.80;;;;;;4973482;28;20318;-65
2021/07/15 01:59:44;;;;;;;;;;;16.90;97.80;;;;;;4973240;28;19922;-65
2021/07/15 02:02:10;;;;;;;;;;;16.90;97.80;;;;;;4978400;28;19914;-65
2021/07/15 02:04:38;;;;;;;;;;;16.90;97.70;;;;;;4983872;28;19936;-66
2021/07/15 02:07:04;;;;;;;;;;;16.80;97.80;;;;;;4975170;28;20339;-65
2021/07/15 02:09:29;;;;;;;;;;;16.80;97.80;;;;;;4971887;28;19914;-65
2021/07/15 02:11:55;;;;;;;;;;;16.80;97.90;;;;;;5002290;28;19909;-66
2021/07/15 02:14:25;;;;;;;;;;;16.90;98.00;;;;;;4976354;28;19921;-65
2021/07/15 02:16:51;;;;;;;;;;;16.90;98.10;;;;;;4982892;28;19957;-66
2021/07/15 02:19:17;;;;;;;;;;;17.00;98.10;;;;;;4977211;28;20394;-65
2021/07/15 02:21:44;;;;;;;;;;;17.00;98.00;;;;;;4979437;28;19917;-65
2021/07/15 02:24:11;;;;;;;;;;;17.00;97.90;;;;;;4986173;28;20347;-65
2021/07/15 02:26:39;;;;;;;;;;;17.10;97.80;;;;;;4977458;28;20397;-66
2021/07/15 02:29:04;;;;;;;;;;;17.10;97.80;;;;;;4972126;28;19998;-65
2021/07/15 02:31:36;;;;;;;;;;;17.20;97.70;;;;;;4977573;28;19993;-66
2021/07/15 02:34:05;;;;;;;;;;;17.20;97.50;;;;;;4979210;28;19917;-65
2021/07/15 02:36:31;;;;;;;;;;;17.30;97.40;;;;;;4980895;28;19914;-65
2021/07/15 02:38:59;;;;;;;;;;;17.40;97.30;;;;;;4979971;28;19982;-65
2021/07/15 02:41:24;;;;;;;;;;;17.40;97.10;;;;;;4977011;28;19918;-66
2021/07/15 02:43:50;;;;;;;;;;;17.40;97.00;;;;;;4971661;28;19913;-66
2021/07/15 02:46:15;;;;;;;;;;;17.40;96.90;;;;;;4975300;28;19968;-66
2021/07/15 02:48:41;;;;;;;;;;;17.40;96.60;;;;;;4984827;28;19929;-65
2021/07/15 02:51:06;;;;;;;;;;;17.50;96.60;;;;;;4981053;28;19929;-65
2021/07/15 02:53:32;;;;;;;;;;;17.50;96.50;;;;;;4979723;28;19922;-65
2021/07/15 02:56:17;;;;;;;;;;;17.50;96.40;;;;;;4980843;28;20024;-66
2021/07/15 02:58:49;;;;;;;;;;;17.50;96.40;;;;;;4972697;28;20020;-66
2021/07/15 03:01:16;;;;;;;;;;;17.50;96.50;;;;;;4980751;28;20041;-66
2021/07/15 03:03:42;;;;;;;;;;;17.50;96.30;;;;;;4977966;28;20028;-65
2021/07/15 03:06:12;;;;;;;;;;;17.50;96.20;;;;;;4980950;28;20020;-65
2021/07/15 03:08:48;;;;;;;;;;;17.50;96.10;;;;;;4979980;28;20340;-66
2021/07/15 03:11:14;;;;;;;;;;;17.50;96.00;;;;;;4977911;28;19914;-66
2021/07/15 03:13:40;;;;;;;;;;;17.50;96.20;;;;;;4974174;28;20401;-65
2021/07/15 03:16:06;;;;;;;;;;;17.60;96.00;;;;;;4981367;28;19929;-66
2021/07/15 03:18:34;;;;;;;;;;;17.60;96.00;;;;;;4969686;28;20261;-66
2021/07/15 03:21:01;;;;;;;;;;;17.60;95.80;;;;;;4980194;28;20036;-65
2021/07/15 03:23:27;;;;;;;;;;;17.60;95.80;;;;;;5001219;28;19913;-66
2021/07/15 03:25:54;;;;;;;;;;;17.70;95.80;;;;;;4996018;28;19918;-66
2021/07/15 03:28:21;;;;;;;;;;;17.70;95.90;;;;;;4976105;28;20037;-67
2021/07/15 03:30:47;;;;;;;;;;;17.70;95.50;;;;;;4981630;28;20318;-66
2021/07/15 03:33:13;;;;;;;;;;;17.70;95.40;;;;;;4983705;28;20004;-65
2021/07/15 03:35:39;;;;;;;;;;;17.70;95.50;;;;;;4980741;28;19959;-66
2021/07/15 03:38:05;;;;;;;;;;;17.80;95.50;;;;;;4977087;28;19926;-66
2021/07/15 03:40:31;;;;;;;;;;;17.70;95.40;;;;;;4978497;28;20312;-66
2021/07/15 03:42:56;;;;;;;;;;;17.70;95.30;;;;;;4993192;28;19914;-65
2021/07/15 03:45:23;;;;;;;;;;;17.70;95.30;;;;;;4974378;28;19997;-66
2021/07/15 03:47:51;;;;;;;;;;;17.70;95.40;;;;;;4973692;28;20325;-64
2021/07/15 03:50:28;;;;;;;;;;;17.70;95.40;;;;;;4974592;28;19922;-65
2021/07/15 03:52:55;;;;;;;;;;;17.70;95.30;;;;;;4993856;28;20288;-66
2021/07/15 03:55:25;;;;;;;;;;;17.70;95.30;;;;;;4977922;28;20030;-66
2021/07/15 03:57:51;;;;;;;;;;;17.70;95.30;;;;;;4977457;28;20001;-65
2021/07/15 04:00:19;;;;;;;;;;;17.80;95.30;;;;;;4995073;28;20073;-66
2021/07/15 04:02:45;;;;;;;;;;;17.70;95.40;;;;;;4978714;28;20306;-65
2021/07/15 04:05:12;;;;;;;;;;;17.70;95.30;;;;;;4973557;28;20294;-64
2021/07/15 04:07:38;;;;;;;;;;;17.70;95.20;;;;;;4974860;28;19930;-64
2021/07/15 04:10:04;;;;;;;;;;;17.80;95.20;;;;;;4983838;28;20390;-64
2021/07/15 04:12:31;;;;;;;;;;;17.80;95.20;;;;;;4975710;28;19914;-64
2021/07/15 04:15:07;;;;;;;;;;;17.80;95.00;;;;;;4978696;28;19922;-64
2021/07/15 04:17:34;;;;;;;;;;;17.80;95.00;;;;;;4981108;28;19914;-64
2021/07/15 04:20:02;;;;;;;;;;;17.70;95.10;;;;;;4975422;28;19918;-64
2021/07/15 04:22:30;;;;;;;;;;;17.70;95.00;;;;;;4979352;28;20380;-64
2021/07/15 04:24:57;;;;;;;;;;;17.70;95.00;;;;;;4974224;28;19989;-64
2021/07/15 04:27:23;;;;;;;;;;;17.80;95.10;;;;;;4975727;28;19914;-65
2021/07/15 04:29:49;;;;;;;;;;;17.80;94.90;;;;;;4978146;28;19920;-65
2021/07/15 04:32:18;;;;;;;;;;;17.80;94.70;;;;;;4979900;28;20006;-63
2021/07/15 04:34:45;;;;;;;;;;;17.90;94.70;;;;;;4977193;28;19926;-64
2021/07/15 04:37:11;;;;;;;;;;;17.90;94.30;;;;;;4979606;28;19914;-64
2021/07/15 04:39:37;;;;;;;;;;;18.00;94.10;;;;;;4926752;28;19933;-64
2021/07/15 04:42:03;;;;;;;;;;;18.00;93.60;;;;;;4940247;28;20267;-64
2021/07/15 04:44:29;;;;;;;;;;;18.20;93.50;;;;;;4938077;29;19954;-64
2021/07/15 04:46:55;;;;;;;;;;;18.20;93.20;;;;;;4935380;28;20001;-64
2021/07/15 04:49:21;;;;;;;;;;;18.30;93.10;;;;;;4941386;28;20006;-64
2021/07/15 04:51:47;;;;;;;;;;;18.40;92.50;;;;;;4940635;28;19918;-64
2021/07/15 04:54:14;;;;;;;;;;;18.50;92.60;;;;;;4944873;28;20034;-65
2021/07/15 04:56:40;;;;;;;;;;;18.70;92.50;;;;;;4935099;28;20018;-65
2021/07/15 04:59:06;;;;;;;;;;;18.60;92.20;;;;;;4932614;29;19925;-64
2021/07/15 05:01:32;;;;;;;;;;;18.60;92.00;;;;;;4928790;28;19929;-64
2021/07/15 05:03:58;;;;;;;;;;;18.70;92.10;;;;;;4938756;28;20314;-64
2021/07/15 05:06:24;;;;;;;;;;;18.70;91.90;;;;;;4936554;28;19989;-64
2021/07/15 05:08:49;;;;;;;;;;;18.60;91.60;;;;;;4938715;28;19919;-65
2021/07/15 05:11:15;;;;;;;;;;;18.50;91.80;;;;;;4935752;29;20294;-64
2021/07/15 05:13:40;;;;;;;;;;;18.50;92.10;;;;;;4943729;28;19919;-64
2021/07/15 05:16:06;;;;;;;;;;;18.50;92.50;;;;;;4939897;28;19927;-64
2021/07/15 05:18:33;;;;;;;;;;;18.50;92.60;;;;;;4936115;28;19923;-64
2021/07/15 05:20:59;;;;;;;;;;;18.50;92.60;;;;;;4936411;28;19918;-64
2021/07/15 05:23:24;;;;;;;;;;;18.50;92.50;;;;;;4936946;28;19930;-65
2021/07/15 05:25:51;;;;;;;;;;;18.40;92.70;;;;;;4945330;28;19911;-65
2021/07/15 05:28:17;;;;;;;;;;;18.40;92.60;;;;;;4935919;28;20021;-64
2021/07/15 05:30:43;;;;;;;;;;;18.30;92.80;;;;;;4937542;28;20032;-64
2021/07/15 05:33:08;;;;;;;;;;;18.50;92.90;;;;;;4937263;28;20171;-65
2021/07/15 05:35:34;;;;;;;;;;;18.50;92.80;;;;;;4937121;28;20032;-64
2021/07/15 05:37:59;;;;;;;;;;;18.50;92.30;;;;;;4936178;28;20061;-64
2021/07/15 05:40:26;;;;;;;;;;;18.70;92.20;;;;;;4934526;29;20293;-66
2021/07/15 05:42:51;;;;;;;;;;;18.70;91.80;;;;;;4942602;28;19968;-65
2021/07/15 05:45:16;;;;;;;;;;;18.70;91.20;;;;;;4940317;28;19978;-66
2021/07/15 05:47:42;;;;;;;;;;;18.80;91.30;;;;;;4931668;28;19919;-67
2021/07/15 05:50:08;;;;;;;;;;;18.80;91.10;;;;;;4936004;28;19918;-67
2021/07/15 05:52:33;;;;;;;;;;;18.90;91.10;;;;;;4943601;28;20046;-67
2021/07/15 05:54:59;;;;;;;;;;;18.90;91.00;;;;;;4943499;29;20132;-66
2021/07/15 05:57:25;;;;;;;;;;;19.00;90.90;;;;;;4935906;28;19941;-66
2021/07/15 05:59:51;;;;;;;;;;;19.10;91.20;;;;;;4943164;28;19951;-67
2021/07/15 06:02:17;;;;;;;;;;;19.00;90.00;;;;;;4942546;28;20379;-68
2021/07/15 06:04:43;;;;;;;;;;;19.10;90.10;;;;;;4944312;28;19919;-68
2021/07/15 06:07:08;;;;;;;;;;;19.20;90.40;;;;;;4949932;28;20074;-66
2021/07/15 06:09:34;;;;;;;;;;;19.20;90.10;;;;;;4942830;28;20481;-67
2021/07/15 06:11:59;;;;;;;;;;;19.20;89.50;;;;;;4937836;28;19977;-67
2021/07/15 06:14:25;;;;;;;;;;;19.30;90.00;;;;;;4956942;28;19923;-67
2021/07/15 06:16:50;;;;;;;;;;;19.30;89.40;;;;;;4941199;28;20191;-67
2021/07/15 06:19:16;;;;;;;;;;;19.50;89.20;;;;;;4941393;28;20001;-67
2021/07/15 06:21:41;;;;;;;;;;;19.60;89.00;;;;;;4942067;28;19923;-68
2021/07/15 06:24:09;;;;;;;;;;;19.70;88.90;;;;;;4956915;28;19914;-66
2021/07/15 06:26:35;;;;;;;;;;;19.60;88.10;;;;;;4940352;28;20004;-68
2021/07/15 06:29:00;;;;;;;;;;;19.70;88.00;;;;;;4945554;28;20374;-66
2021/07/15 06:31:26;;;;;;;;;;;19.80;88.40;;;;;;4958760;28;19922;-66
2021/07/15 06:33:51;;;;;;;;;;;19.90;87.70;;;;;;4955488;28;19918;-67
2021/07/15 06:36:17;;;;;;;;;;;20.00;87.50;;;;;;4950843;28;21307;-67
2021/07/15 06:38:42;;;;;;;;;;;20.00;87.50;;;;;;4957482;28;19981;-67
2021/07/15 06:41:09;;;;;;;;;;;20.00;86.60;;;;;;4941818;28;20210;-68
2021/07/15 06:43:35;;;;;;;;;;;20.20;87.20;;;;;;4944252;29;20328;-68
2021/07/15 06:46:01;;;;;;;;;;;20.30;87.30;;;;;;4941642;28;19946;-67
2021/07/15 06:48:27;;;;;;;;;;;20.50;86.10;;;;;;4948693;28;20176;-67
2021/07/15 06:50:52;;;;;;;;;;;20.70;86.30;;;;;;4952970;28;19962;-67
2021/07/15 06:53:18;;;;;;;;;;;20.80;86.10;;;;;;4944934;28;19930;-67
2021/07/15 06:55:43;;;;;;;;;;;20.90;85.00;;;;;;4956083;28;20300;-68
2021/07/15 06:58:09;;;;;;;;;;;21.00;84.20;;;;;;4941499;28;19921;-68
2021/07/15 07:00:35;;;;;;;;;;;21.10;83.90;;;;;;4939477;29;20025;-67
2021/07/15 07:03:00;;;;;;;;;;;21.30;83.10;;;;;;4937973;28;19962;-67
2021/07/15 07:05:26;;;;;;;;;;;21.10;82.70;;;;;;4944512;29;19977;-67
2021/07/15 07:07:52;;;;;;;;;;;21.00;83.30;;;;;;4934018;28;19927;-67
2021/07/15 07:10:18;;;;;;;;;;;21.10;83.00;;;;;;4944337;28;19918;-66
2021/07/15 07:12:44;;;;;;;;;;;21.30;84.10;;;;;;4941972;28;19929;-67
2021/07/15 07:15:11;;;;;;;;;;;21.40;83.00;;;;;;4944569;29;19922;-67
2021/07/15 07:17:36;;;;;;;;;;;21.70;81.50;;;;;;4942887;28;20065;-68
2021/07/15 07:20:03;;;;;;;;;;;21.60;82.00;;;;;;4936279;28;20077;-67
2021/07/15 07:22:29;;;;;;;;;;;21.70;83.10;;;;;;4936566;28;20407;-68
2021/07/15 07:24:54;;;;;;;;;;;21.70;80.30;;;;;;4946262;28;19954;-67
2021/07/15 07:27:20;;;;;;;;;;;21.80;79.50;;;;;;4946364;28;20515;-67
2021/07/15 07:29:45;;;;;;;;;;;21.90;80.20;;;;;;4939707;29;19984;-67
2021/07/15 07:32:11;;;;;;;;;;;22.10;80.70;;;;;;4944412;28;20085;-67
2021/07/15 07:34:36;;;;;;;;;;;22.30;78.60;;;;;;4942935;28;20028;-67
2021/07/15 07:37:02;;;;;;;;;;;22.80;78.90;;;;;;4941332;28;20300;-66
2021/07/15 07:39:27;;;;;;;;;;;22.60;77.40;;;;;;4947204;28;20252;-67
2021/07/15 07:41:53;;;;;;;;;;;22.50;77.90;;;;;;4939930;28;20391;-67
2021/07/15 07:44:19;;;;;;;;;;;22.40;78.90;;;;;;4959870;28;19921;-67
2021/07/15 07:46:44;;;;;;;;;;;22.40;78.40;;;;;;4941255;28;20313;-66
2021/07/15 07:49:10;;;;;;;;;;;22.70;78.10;;;;;;4942257;28;19925;-67
2021/07/15 07:51:35;;;;;;;;;;;22.90;77.20;;;;;;4942548;28;19949;-67
2021/07/15 07:54:01;;;;;;;;;;;22.70;76.50;;;;;;4943752;28;20001;-66
2021/07/15 07:56:27;;;;;;;;;;;23.00;76.70;;;;;;4942525;28;19957;-67
2021/07/15 07:58:52;;;;;;;;;;;22.90;73.90;;;;;;4939974;29;19981;-67
2021/07/15 08:01:18;;;;;;;;;;;23.10;75.10;;;;;;4953473;28;19935;-67
2021/07/15 08:03:44;;;;;;;;;;;23.20;74.60;;;;;;4935356;29;19918;-67
2021/07/15 08:06:09;;;;;;;;;;;23.40;75.50;;;;;;4960572;28;19918;-67
2021/07/15 08:08:38;;;;;;;;;;;23.60;74.50;;;;;;4942316;28;19915;-67
2021/07/15 08:11:03;;;;;;;;;;;23.80;71.70;;;;;;4943789;28;19946;-67
2021/07/15 08:13:29;;;;;;;;;;;23.70;73.60;;;;;;4940909;29;19927;-67
2021/07/15 08:15:55;;;;;;;;;;;23.40;73.90;;;;;;4938853;28;19915;-66
2021/07/15 08:18:20;;;;;;;;;;;23.60;75.20;;;;;;4957087;28;19950;-67
2021/07/15 08:20:46;;;;;;;;;;;23.40;73.50;;;;;;4941946;28;19915;-68
2021/07/15 08:23:12;;;;;;;;;;;23.60;72.80;;;;;;4957852;28;20262;-67
2021/07/15 08:25:37;;;;;;;;;;;23.30;73.20;;;;;;4943075;28;20458;-67
2021/07/15 08:28:03;;;;;;;;;;;23.10;74.90;;;;;;4934299;28;19926;-67
2021/07/15 08:30:28;;;;;;;;;;;23.10;75.80;;;;;;4936328;29;20416;-67
2021/07/15 08:32:54;;;;;;;;;;;23.20;75.00;;;;;;4935579;28;19926;-67
2021/07/15 08:35:20;;;;;;;;;;;23.00;75.90;;;;;;4944352;28;20297;-68
2021/07/15 08:37:45;;;;;;;;;;;23.10;73.70;;;;;;4936982;28;19924;-67
2021/07/15 08:40:11;;;;;;;;;;;23.00;73.90;;;;;;4945646;28;20118;-67
2021/07/15 08:42:37;;;;;;;;;;;23.20;74.30;;;;;;4940605;29;19954;-67
2021/07/15 08:45:06;;;;;;;;;;;23.20;72.10;;;;;;4932340;28;19914;-67
2021/07/15 08:47:33;;;;;;;;;;;23.30;70.60;;;;;;4941464;28;19934;-67
2021/07/15 08:49:59;;;;;;;;;;;23.40;71.40;;;;;;4942467;28;19919;-67
2021/07/15 08:52:24;;;;;;;;;;;23.50;73.00;;;;;;4951720;28;20443;-65
2021/07/15 08:55:01;;;;;;;;;;;23.50;72.40;;;;;;4937659;28;19992;-66
2021/07/15 08:57:27;;;;;;;;;;;23.40;73.20;;;;;;4943851;28;19919;-65
2021/07/15 08:59:53;;;;;;;;;;;23.50;73.60;;;;;;4942956;28;19921;-66
2021/07/15 09:02:19;;;;;;;;;;;23.30;73.80;;;;;;4954419;28;20032;-65
2021/07/15 09:04:45;;;;;;;;;;;22.90;74.60;;;;;;4935878;28;19968;-65
2021/07/15 09:07:11;;;;;;;;;;;23.10;73.70;;;;;;4944389;28;20344;-67
2021/07/15 09:09:37;;;;;;;;;;;23.70;74.60;;;;;;4940739;29;20081;-66
2021/07/15 09:12:02;;;;;;;;;;;24.10;71.70;;;;;;4942151;29;19945;-67
2021/07/15 09:14:28;;;;;;;;;;;24.20;71.40;;;;;;4938762;28;20599;-66
2021/07/15 09:16:57;;;;;;;;;;;24.50;72.40;;;;;;4937965;28;20023;-66
2021/07/15 09:19:26;;;;;;;;;;;24.80;68.60;;;;;;4943752;28;19914;-66
2021/07/15 09:21:52;;;;;;;;;;;24.70;68.10;;;;;;4939803;28;19914;-66
2021/07/15 09:24:26;;;;;;;;;;;25.10;68.80;;;;;;4937928;28;19919;-66
2021/07/15 09:26:51;;;;;;;;;;;24.80;66.10;;;;;;4935262;28;19924;-65
2021/07/15 09:29:18;;;;;;;;;;;24.50;69.20;;;;;;4944677;28;19910;-66
2021/07/15 09:31:54;;;;;;;;;;;24.60;69.80;;;;;;4936475;28;20032;-66
2021/07/15 09:34:21;;;;;;;;;;;25.60;68.00;;;;;;4939155;28;19922;-67
2021/07/15 09:36:47;;;;;;;;;;;25.70;65.30;;;;;;4938092;28;19918;-66
2021/07/15 09:39:27;;;;;;;;;;;25.20;66.40;;;;;;4950874;28;19974;-66
2021/07/15 09:42:15;;;;;;;;;;;24.90;68.30;;;;;;4953788;28;19928;-66
2021/07/15 09:44:43;;;;;;;;;;;24.50;68.70;;;;;;4939105;28;19923;-66
2021/07/15 09:47:32;;;;;;;;;;;24.90;67.80;;;;;;4938389;28;20024;-65
2021/07/15 09:49:58;;;;;;;;;;;24.60;67.70;;;;;;4941974;28;20411;-66
2021/07/15 09:52:24;;;;;;;;;;;24.70;65.30;;;;;;4940367;28;19973;-67
2021/07/15 09:54:50;;;;;;;;;;;24.90;67.40;;;;;;4942727;28;20256;-67
2021/07/15 09:57:25;;;;;;;;;;;24.60;65.60;;;;;;4946111;28;19922;-67
2021/07/15 09:59:51;;;;;;;;;;;24.50;66.30;;;;;;4941580;29;20347;-67
2021/07/15 10:02:27;;;;;;;;;;;24.60;67.20;;;;;;4957837;28;19937;-66
2021/07/15 10:04:52;;;;;;;;;;;24.40;68.40;;;;;;4943777;28;20395;-67
2021/07/15 10:07:22;;;;;;;;;;;24.30;66.60;;;;;;4958452;28;20009;-67
2021/07/15 10:09:48;;;;;;;;;;;24.40;66.80;;;;;;4958674;28;19919;-66
2021/07/15 10:12:25;;;;;;;;;;;24.50;66.00;;;;;;4962440;28;19915;-66
2021/07/15 10:14:51;;;;;;;;;;;24.70;67.20;;;;;;4942419;28;19919;-66
2021/07/15 10:17:36;;;;;;;;;;;24.80;66.50;;;;;;4955713;28;19972;-66
2021/07/15 10:20:12;;;;;;;;;;;24.90;67.90;;;;;;4941756;28;19922;-66
2021/07/15 10:22:38;;;;;;;;;;;24.90;64.80;;;;;;4950616;28;20494;-68
2021/07/15 10:25:03;;;;;;;;;;;24.70;65.80;;;;;;4942640;29;19910;-66
2021/07/15 10:27:29;;;;;;;;;;;24.70;67.70;;;;;;4940953;28;20077;-66
2021/07/15 10:29:57;;;;;;;;;;;24.90;67.10;;;;;;4943585;28;19945;-66
2021/07/15 10:32:23;;;;;;;;;;;25.80;63.70;;;;;;4954172;28;19914;-67
2021/07/15 10:34:52;;;;;;;;;;;26.40;61.30;;;;;;4942679;28;19942;-68
2021/07/15 10:37:19;;;;;;;;;;;27.10;61.20;;;;;;4943229;29;19918;-68
2021/07/15 10:39:45;;;;;;;;;;;26.80;58.90;;;;;;4959141;28;19914;-67
2021/07/15 10:42:11;;;;;;;;;;;27.10;61.40;;;;;;4943620;28;19922;-68
2021/07/15 10:44:36;;;;;;;;;;;26.60;61.90;;;;;;4960065;28;20335;-67
2021/07/15 10:47:03;;;;;;;;;;;26.00;62.80;;;;;;4944468;28;20324;-66
2021/07/15 10:49:28;;;;;;;;;;;25.20;64.50;;;;;;4942695;28;19945;-67
2021/07/15 10:51:56;;;;;;;;;;;25.20;64.50;;;;;;4943473;28;20343;-66
2021/07/15 10:54:22;;;;;;;;;;;25.10;66.80;;;;;;4957748;28;20138;-67
2021/07/15 10:56:49;;;;;;;;;;;24.70;66.70;;;;;;4942247;28;19978;-67
2021/07/15 10:59:34;;;;;;;;;;;24.40;66.90;;;;;;4951940;28;19911;-66
2021/07/15 11:02:02;;;;;;;;;;;25.20;65.10;;;;;;4959520;28;19918;-66
2021/07/15 11:04:40;;;;;;;;;;;26.40;64.70;;;;;;4937240;28;19917;-66
2021/07/15 11:07:20;;;;;;;;;;;26.70;61.30;;;;;;4943261;28;19977;-68
2021/07/15 11:09:46;;;;;;;;;;;27.20;60.60;;;;;;4961726;28;19921;-68
2021/07/15 11:12:26;;;;;;;;;;;27.40;56.00;;;;;;4945166;28;19930;-67
2021/07/15 11:15:05;;;;;;;;;;;27.70;57.40;;;;;;4938517;28;19926;-67
2021/07/15 11:17:32;;;;;;;;;;;28.00;53.20;;;;;;4945370;28;19915;-67
2021/07/15 11:20:07;;;;;;;;;;;27.50;54.60;;;;;;4944645;28;19915;-67
2021/07/15 11:22:36;;;;;;;;;;;27.50;57.40;;;;;;4943538;28;19914;-66
2021/07/15 11:25:03;;;;;;;;;;;28.40;55.60;;;;;;4946557;28;19998;-67
2021/07/15 11:27:31;;;;;;;;;;;28.60;55.40;;;;;;4946937;28;19934;-67
2021/07/15 11:29:57;;;;;;;;;;;28.10;54.00;;;;;;4940738;28;20194;-66
2021/07/15 11:32:23;;;;;;;;;;;27.80;57.40;;;;;;4944878;28;20010;-67
2021/07/15 11:34:52;;;;;;;;;;;27.70;57.40;;;;;;4944663;28;20012;-66
2021/07/15 11:37:40;;;;;;;;;;;27.20;56.80;;;;;;4941486;29;20030;-66
2021/07/15 11:40:25;;;;;;;;;;;26.70;59.30;;;;;;4935841;29;19922;-66
2021/07/15 11:42:51;;;;;;;;;;;26.50;60.30;;;;;;4944708;28;20005;-66
2021/07/15 11:45:16;;;;;;;;;;;27.00;62.60;;;;;;4940278;28;20009;-65
2021/07/15 11:47:50;;;;;;;;;;;27.80;57.70;;;;;;4945222;29;20005;-66
2021/07/15 11:50:33;;;;;;;;;;;28.60;54.50;;;;;;4960898;28;19988;-66
2021/07/15 11:53:19;;;;;;;;;;;28.50;53.50;;;;;;4942920;28;20030;-66
2021/07/15 11:55:48;;;;;;;;;;;28.60;53.60;;;;;;4957871;28;20009;-66
2021/07/15 11:58:45;;;;;;;;;;;29.00;51.80;;;;;;4941047;28;19914;-66
2021/07/15 12:01:13;;;;;;;;;;;29.40;50.30;;;;;;4957753;28;19918;-67
2021/07/15 12:03:55;;;;;;;;;;;30.00;50.60;;;;;;4929258;28;20229;-67
2021/07/15 12:06:20;;;;;;;;;;;29.30;53.00;;;;;;4939269;29;19929;-67
2021/07/15 12:08:47;;;;;;;;;;;28.70;53.10;;;;;;4942419;28;19914;-66
2021/07/15 12:11:12;;;;;;;;;;;27.80;55.20;;;;;;4951747;28;20503;-66
2021/07/15 12:13:38;;;;;;;;;;;27.00;57.10;;;;;;4951441;28;20013;-66
2021/07/15 12:16:05;;;;;;;;;;;28.10;55.30;;;;;;4936283;28;20210;-65
2021/07/15 12:18:35;;;;;;;;;;;29.10;52.40;;;;;;4938625;28;20394;-67
2021/07/15 12:21:01;;;;;;;;;;;29.00;53.40;;;;;;4934418;28;19967;-66
2021/07/15 12:23:32;;;;;;;;;;;29.90;47.90;;;;;;4936150;28;19910;-66
2021/07/15 12:25:58;;;;;;;;;;;29.90;50.20;;;;;;4939832;28;19914;-67
2021/07/15 12:28:26;;;;;;;;;;;30.20;50.10;;;;;;4937792;29;19911;-66
2021/07/15 12:30:53;;;;;;;;;;;30.60;47.30;;;;;;4945261;28;20244;-67
2021/07/15 12:33:20;;;;;;;;;;;30.60;48.30;;;;;;4942865;28;19937;-67
2021/07/15 12:35:46;;;;;;;;;;;30.70;47.10;;;;;;4941463;28;20379;-67
2021/07/15 12:38:30;;;;;;;;;;;31.40;46.60;;;;;;4941184;28;19911;-67
2021/07/15 12:41:06;;;;;;;;;;;31.00;45.00;;;;;;4941870;28;19918;-67
2021/07/15 12:43:39;;;;;;;;;;;30.90;45.10;;;;;;4939957;28;19910;-66
2021/07/15 12:46:12;;;;;;;;;;;31.30;48.30;;;;;;4941733;29;19925;-67
2021/07/15 12:48:41;;;;;;;;;;;30.80;48.50;;;;;;4943680;28;19923;-67
2021/07/15 12:51:07;;;;;;;;;;;30.80;47.20;;;;;;4944605;28;21096;-67
2021/07/15 12:53:38;;;;;;;;;;;30.50;46.10;;;;;;4938283;28;19919;-66
2021/07/15 12:56:04;;;;;;;;;;;31.10;44.50;;;;;;4943334;28;19917;-67
2021/07/15 12:58:30;;;;;;;;;;;30.80;48.20;;;;;;4940899;28;19910;-68
2021/07/15 13:01:05;;;;;;;;;;;31.80;45.10;;;;;;4935630;28;19965;-66
2021/07/15 13:03:31;;;;;;;;;;;31.50;45.00;;;;;;4933384;28;20029;-67
2021/07/15 13:05:57;;;;;;;;;;;31.40;45.30;;;;;;4941744;28;20005;-67
2021/07/15 13:09:09;;;;;;;;;;;31.00;48.80;;;;;;4938765;28;20009;-66
2021/07/15 13:14:14;;;;;;;;;;;31.20;50.50;;;;;;4938100;29;20037;-67
2021/07/15 13:16:43;;;;;;;;;;;31.50;45.40;;;;;;4943956;28;20328;-67
2021/07/15 13:19:12;;;;;;;;;;;31.40;44.10;;;;;;4939608;28;19926;-66
2021/07/15 13:21:38;;;;;;;;;;;31.50;45.00;;;;;;4940757;28;19933;-67
2021/07/15 13:24:05;;;;;;;;;;;32.10;47.30;;;;;;4939825;28;19923;-67
2021/07/15 13:26:30;;;;;;;;;;;32.50;43.70;;;;;;4943053;28;19990;-67
2021/07/15 13:28:56;;;;;;;;;;;33.00;43.40;;;;;;4941802;28;20013;-67
2021/07/15 13:31:21;;;;;;;;;;;32.10;44.10;;;;;;4942368;29;19915;-65
2021/07/15 13:33:47;;;;;;;;;;;32.40;44.20;;;;;;4943940;28;20291;-68
2021/07/15 13:36:14;;;;;;;;;;;33.10;45.00;;;;;;4945871;28;20288;-68
2021/07/15 13:38:40;;;;;;;;;;;32.90;42.50;;;;;;4943406;28;20013;-67
2021/07/15 13:41:20;;;;;;;;;;;32.50;42.80;;;;;;4945194;28;20320;-67
2021/07/15 13:43:45;;;;;;;;;;;33.40;42.90;;;;;;4940004;29;20049;-68
2021/07/15 13:46:11;;;;;;;;;;;34.40;39.90;;;;;;4942211;28;20122;-67
2021/07/15 13:48:41;;;;;;;;;;;34.50;39.50;;;;;;4942297;28;19918;-66
2021/07/15 13:51:12;;;;;;;;;;;33.20;41.70;;;;;;4944543;28;20356;-67
2021/07/15 13:53:40;;;;;;;;;;;32.40;41.50;;;;;;4936723;29;19962;-67
2021/07/15 13:56:07;;;;;;;;;;;32.60;44.50;;;;;;4943863;28;20008;-66
2021/07/15 13:58:33;;;;;;;;;;;31.60;45.60;;;;;;4944469;28;19930;-68
2021/07/15 14:00:58;;;;;;;;;;;31.90;43.10;;;;;;4945191;29;19934;-67
2021/07/15 14:03:24;;;;;;;;;;;32.90;44.60;;;;;;4944050;28;19988;-67
2021/07/15 14:05:51;;;;;;;;;;;31.70;46.70;;;;;;4941826;29;19930;-66
2021/07/15 14:08:16;;;;;;;;;;;31.50;45.90;;;;;;4940996;28;19919;-67
2021/07/15 14:10:42;;;;;;;;;;;31.30;44.60;;;;;;4942799;28;19922;-66
2021/07/15 14:13:08;;;;;;;;;;;32.20;47.00;;;;;;4944248;29;19922;-67
2021/07/15 14:15:35;;;;;;;;;;;33.40;44.40;;;;;;4943921;29;20431;-67
2021/07/15 14:18:11;;;;;;;;;;;33.60;42.40;;;;;;4942891;29;19922;-67
2021/07/15 14:20:38;;;;;;;;;;;33.90;40.30;;;;;;4941103;28;19914;-67
2021/07/15 14:23:05;;;;;;;;;;;33.90;40.70;;;;;;4954484;28;19926;-68